createdAt,value
2023-01-29T00:02:08.225Z,9.38
2023-01-29T00:04:39.151Z,9.32
2023-01-29T00:07:19.882Z,9.16
2023-01-29T00:09:49.890Z,9.31
2023-01-29T00:12:16.644Z,9.93
2023-01-29T00:14:49.891Z,9.68
2023-01-29T00:17:19.953Z,9.43
2023-01-29T00:19:47.057Z,9.63
2023-01-29T00:22:16.951Z,9.73
2023-01-29T00:24:44.452Z,9.78
2023-01-29T00:27:11.131Z,9.78
2023-01-29T00:29:42.113Z,9.78
2023-01-29T00:32:12.102Z,9.84
2023-01-29T00:34:38.921Z,10.26
2023-01-29T00:37:09.134Z,9.88
2023-01-29T00:39:48.182Z,9.66
2023-01-29T00:42:37.002Z,10.08
2023-01-29T00:45:03.536Z,10.17
2023-01-29T00:47:36.485Z,9.46
2023-01-29T00:50:05.711Z,10.12
2023-01-29T00:52:37.703Z,9.77
2023-01-29T00:55:07.587Z,9.38
2023-01-29T00:57:35.374Z,10.16
2023-01-29T01:00:04.066Z,8.67
2023-01-29T01:02:49.400Z,9.01
2023-01-29T01:05:21.839Z,9.35
2023-01-29T01:07:49.758Z,9.75
2023-01-29T01:10:22.459Z,9.52
2023-01-29T01:12:50.768Z,9.50
2023-01-29T01:15:17.927Z,9.13
2023-01-29T01:17:45.940Z,9.93
2023-01-29T01:20:17.294Z,9.96
2023-01-29T01:22:47.378Z,8.47
2023-01-29T01:25:14.422Z,9.34
2023-01-29T01:27:41.430Z,9.74
2023-01-29T01:30:12.865Z,9.65
2023-01-29T01:32:43.348Z,9.42
2023-01-29T01:35:17.194Z,9.35
2023-01-29T01:37:46.512Z,8.82
2023-01-29T01:40:18.386Z,9.63
2023-01-29T01:42:50.553Z,9.52
2023-01-29T01:45:28.141Z,9.74
2023-01-29T01:48:01.551Z,9.84
2023-01-29T01:50:40.516Z,9.66
2023-01-29T01:53:13.954Z,10.32
2023-01-29T01:55:52.973Z,8.87
2023-01-29T01:58:27.737Z,9.56
2023-01-29T02:00:58.032Z,9.80
2023-01-29T02:03:43.573Z,9.58
2023-01-29T02:06:32.770Z,9.93
2023-01-29T02:09:20.966Z,9.37
2023-01-29T02:11:47.388Z,9.84
2023-01-29T02:14:14.247Z,9.49
2023-01-29T02:16:40.867Z,9.86
2023-01-29T02:19:14.967Z,9.29
2023-01-29T02:21:44.641Z,9.17
2023-01-29T02:24:14.428Z,9.45
2023-01-29T02:26:43.118Z,9.32
2023-01-29T02:29:25.453Z,9.22
2023-01-29T02:32:07.450Z,9.72
2023-01-29T02:34:52.786Z,9.73
2023-01-29T02:37:22.057Z,8.49
2023-01-29T02:40:05.298Z,9.29
2023-01-29T02:42:35.894Z,9.61
2023-01-29T02:45:02.500Z,10.03
2023-01-29T02:47:32.472Z,10.04
2023-01-29T02:50:06.548Z,9.58
2023-01-29T02:52:38.002Z,9.75
2023-01-29T02:55:08.871Z,9.32
2023-01-29T02:57:39.236Z,9.98
2023-01-29T03:00:10.631Z,9.58
2023-01-29T03:02:55.637Z,9.57
2023-01-29T03:05:28.499Z,9.66
2023-01-29T03:08:00.539Z,9.28
2023-01-29T03:10:35.350Z,9.07
2023-01-29T03:13:06.691Z,9.59
2023-01-29T03:15:39.141Z,9.26
2023-01-29T03:18:15.629Z,9.15
2023-01-29T03:20:48.398Z,8.60
2023-01-29T03:23:25.239Z,9.10
2023-01-29T03:26:13.126Z,9.33
2023-01-29T03:29:01.091Z,9.53
2023-01-29T03:31:47.422Z,9.88
2023-01-29T03:34:24.430Z,9.93
2023-01-29T03:37:04.275Z,9.23
2023-01-29T03:39:34.363Z,9.48
2023-01-29T03:42:03.520Z,9.74
2023-01-29T03:44:42.492Z,9.81
2023-01-29T03:47:15.816Z,10.12
2023-01-29T03:49:54.573Z,9.38
2023-01-29T03:52:39.985Z,9.84
2023-01-29T03:55:12.923Z,9.38
2023-01-29T03:57:39.747Z,9.68
2023-01-29T04:00:10.043Z,9.74
2023-01-29T04:02:43.620Z,9.48
2023-01-29T04:05:14.113Z,9.66
2023-01-29T04:07:42.829Z,9.40
2023-01-29T04:10:11.862Z,9.90
2023-01-29T04:12:41.109Z,9.24
2023-01-29T04:15:10.429Z,9.75
2023-01-29T04:17:41.629Z,10.18
2023-01-29T04:20:10.487Z,10.05
2023-01-29T04:22:38.588Z,9.04
2023-01-29T04:25:08.622Z,9.25
2023-01-29T04:27:38.796Z,9.45
2023-01-29T04:30:22.992Z,9.72
2023-01-29T04:33:08.134Z,9.69
2023-01-29T04:36:00.073Z,9.31
2023-01-29T04:38:42.044Z,9.77
2023-01-29T04:41:14.983Z,9.50
2023-01-29T04:43:48.074Z,9.53
2023-01-29T04:46:40.810Z,9.41
2023-01-29T04:49:17.958Z,9.61
2023-01-29T04:51:54.280Z,10.31
2023-01-29T04:54:33.614Z,9.47
2023-01-29T04:57:14.681Z,10.18
2023-01-29T04:59:49.453Z,10.28
2023-01-29T05:02:19.879Z,9.95
2023-01-29T05:04:51.320Z,9.98
2023-01-29T05:07:22.302Z,9.68
2023-01-29T05:09:49.720Z,8.90
2023-01-29T05:12:17.547Z,9.93
2023-01-29T05:14:45.995Z,9.62
2023-01-29T05:17:16.007Z,9.66
2023-01-29T05:19:42.697Z,9.52
2023-01-29T05:22:16.714Z,9.91
2023-01-29T05:24:43.680Z,9.76
2023-01-29T05:27:36.160Z,9.80
2023-01-29T05:30:02.825Z,9.49
2023-01-29T05:32:29.800Z,9.49
2023-01-29T05:34:56.638Z,9.58
2023-01-29T05:37:23.598Z,10.08
2023-01-29T05:39:50.204Z,10.27
2023-01-29T05:42:16.710Z,9.72
2023-01-29T05:44:43.552Z,9.79
2023-01-29T05:47:10.304Z,9.75
2023-01-29T05:49:38.780Z,9.81
2023-01-29T05:52:05.683Z,9.38
2023-01-29T05:54:32.179Z,8.94
2023-01-29T05:56:59.424Z,9.22
2023-01-29T05:59:26.408Z,9.95
2023-01-29T06:01:54.157Z,8.74
2023-01-29T06:04:21.063Z,9.66
2023-01-29T06:06:48.323Z,9.73
2023-01-29T06:09:15.151Z,9.07
2023-01-29T06:11:42.656Z,9.74
2023-01-29T06:14:09.507Z,9.32
2023-01-29T06:16:36.370Z,9.59
2023-01-29T06:19:05.548Z,10.02
2023-01-29T06:21:32.219Z,9.85
2023-01-29T06:23:58.652Z,9.82
2023-01-29T06:26:25.839Z,10.17
2023-01-29T06:28:52.245Z,9.97
2023-01-29T06:31:36.697Z,9.75
2023-01-29T06:34:06.931Z,9.22
2023-01-29T06:36:45.158Z,9.68
2023-01-29T06:39:15.941Z,9.71
2023-01-29T06:41:43.121Z,9.95
2023-01-29T06:44:15.898Z,9.41
2023-01-29T06:46:45.736Z,9.81
2023-01-29T06:49:16.430Z,9.47
2023-01-29T06:51:43.334Z,9.41
2023-01-29T06:54:16.187Z,9.75
2023-01-29T06:56:49.338Z,9.33
2023-01-29T06:59:21.068Z,9.13
2023-01-29T07:01:54.105Z,9.24
2023-01-29T07:04:20.607Z,9.31
2023-01-29T07:06:50.613Z,9.12
2023-01-29T07:09:23.080Z,9.75
2023-01-29T07:11:56.009Z,9.52
2023-01-29T07:14:27.353Z,9.94
2023-01-29T07:16:54.739Z,9.23
2023-01-29T07:19:24.052Z,9.38
2023-01-29T07:21:57.074Z,8.94
2023-01-29T07:24:25.961Z,9.26
2023-01-29T07:26:55.823Z,9.60
2023-01-29T07:29:22.640Z,9.43
2023-01-29T07:31:52.424Z,9.11
2023-01-29T07:34:21.319Z,9.19
2023-01-29T07:36:51.745Z,8.96
2023-01-29T07:39:23.587Z,9.09
2023-01-29T07:41:50.180Z,9.11
2023-01-29T07:44:17.181Z,9.17
2023-01-29T07:46:44.375Z,9.64
2023-01-29T07:49:11.196Z,9.97
2023-01-29T07:51:37.689Z,9.66
2023-01-29T07:54:04.367Z,9.78
2023-01-29T07:56:31.494Z,9.13
2023-01-29T07:58:59.848Z,8.84
2023-01-29T08:01:27.433Z,9.54
2023-01-29T08:03:54.270Z,9.68
2023-01-29T08:06:20.803Z,9.74
2023-01-29T08:08:47.503Z,8.99
2023-01-29T08:11:16.757Z,8.58
2023-01-29T08:13:47.736Z,9.33
2023-01-29T08:16:14.746Z,9.28
2023-01-29T08:18:47.686Z,9.28
2023-01-29T08:21:14.620Z,8.75
2023-01-29T08:23:41.625Z,9.84
2023-01-29T08:26:08.803Z,8.97
2023-01-29T08:28:36.226Z,9.44
2023-01-29T08:31:02.852Z,9.79
2023-01-29T08:33:38.350Z,9.22
2023-01-29T08:36:06.115Z,8.70
2023-01-29T08:38:34.331Z,9.74
2023-01-29T08:41:01.142Z,9.17
2023-01-29T08:43:30.315Z,9.74
2023-01-29T08:45:59.288Z,9.50
2023-01-29T08:48:26.250Z,9.63
2023-01-29T08:50:53.080Z,9.99
2023-01-29T08:53:24.383Z,9.52
2023-01-29T08:55:51.129Z,9.65
2023-01-29T08:58:17.682Z,9.49
2023-01-29T09:00:44.345Z,8.90
2023-01-29T09:03:11.261Z,9.17
2023-01-29T09:05:40.248Z,9.94
2023-01-29T09:08:08.122Z,9.51
2023-01-29T09:10:35.251Z,8.86
2023-01-29T09:13:02.137Z,9.81
2023-01-29T09:15:29.168Z,10.01
2023-01-29T09:17:55.648Z,9.34
2023-01-29T09:20:22.360Z,9.72
2023-01-29T09:22:50.910Z,9.32
2023-01-29T09:25:17.935Z,9.07
2023-01-29T09:27:45.572Z,8.58
2023-01-29T09:30:12.183Z,9.47
2023-01-29T09:32:54.809Z,9.53
2023-01-29T09:35:22.150Z,9.42
2023-01-29T09:37:50.604Z,9.15
2023-01-29T09:40:25.910Z,9.16
2023-01-29T09:42:56.316Z,9.75
2023-01-29T09:45:27.035Z,9.33
2023-01-29T09:47:56.234Z,9.55
2023-01-29T09:50:40.138Z,9.56
2023-01-29T09:53:06.509Z,9.44
2023-01-29T09:55:39.175Z,9.71
2023-01-29T09:58:12.317Z,9.55
2023-01-29T10:00:57.653Z,8.97
2023-01-29T10:03:34.216Z,9.00
2023-01-29T10:06:00.536Z,9.77
2023-01-29T10:08:27.328Z,10.13
2023-01-29T10:11:02.939Z,9.26
2023-01-29T10:13:52.184Z,9.21
2023-01-29T10:16:31.954Z,9.14
2023-01-29T10:19:02.440Z,9.78
2023-01-29T10:21:38.717Z,9.28
2023-01-29T10:24:23.991Z,9.87
2023-01-29T10:26:54.054Z,9.51
2023-01-29T10:29:25.387Z,8.42
2023-01-29T10:31:55.981Z,9.51
2023-01-29T10:34:43.180Z,9.44
2023-01-29T10:37:18.449Z,9.46
2023-01-29T10:39:45.706Z,9.47
2023-01-29T10:42:20.471Z,9.64
2023-01-29T10:45:00.874Z,9.77
2023-01-29T10:47:36.692Z,9.29
2023-01-29T10:50:21.819Z,9.34
2023-01-29T10:52:51.237Z,9.10
2023-01-29T10:55:18.010Z,9.29
2023-01-29T10:57:47.651Z,9.80
2023-01-29T11:00:21.757Z,9.31
2023-01-29T11:02:50.180Z,10.08
2023-01-29T11:05:26.012Z,8.57
2023-01-29T11:07:59.929Z,9.75
2023-01-29T11:10:27.199Z,8.78
2023-01-29T11:12:54.744Z,9.34
2023-01-29T11:15:29.863Z,9.30
2023-01-29T11:18:04.062Z,9.87
2023-01-29T11:20:31.460Z,9.35
2023-01-29T11:22:58.234Z,10.24
2023-01-29T11:25:25.105Z,9.72
2023-01-29T11:27:56.280Z,10.08
2023-01-29T11:30:27.064Z,9.71
2023-01-29T11:32:59.865Z,9.12
2023-01-29T11:35:26.396Z,9.78
2023-01-29T11:37:52.929Z,9.37
2023-01-29T11:40:22.255Z,9.48
2023-01-29T11:42:49.299Z,9.55
2023-01-29T11:45:26.481Z,10.09
2023-01-29T11:47:54.489Z,9.91
2023-01-29T11:50:29.235Z,9.30
2023-01-29T11:52:56.408Z,7.78
2023-01-29T11:55:29.694Z,9.23
2023-01-29T11:57:59.678Z,8.92
2023-01-29T12:00:28.746Z,9.53
2023-01-29T12:03:05.290Z,9.49
2023-01-29T12:05:32.078Z,10.12
2023-01-29T12:08:00.521Z,9.90
2023-01-29T12:10:35.766Z,10.11
2023-01-29T12:13:05.941Z,9.15
2023-01-29T12:15:32.978Z,9.53
2023-01-29T12:18:02.951Z,9.41
2023-01-29T12:20:46.364Z,10.02
2023-01-29T12:23:22.378Z,9.30
2023-01-29T12:26:07.893Z,9.56
2023-01-29T12:28:44.602Z,10.35
2023-01-29T12:31:30.176Z,9.54
2023-01-29T12:34:12.288Z,9.69
2023-01-29T12:36:42.588Z,9.64
2023-01-29T12:39:13.451Z,9.69
2023-01-29T12:41:45.972Z,9.10
2023-01-29T12:44:19.678Z,9.34
2023-01-29T12:46:56.976Z,9.62
2023-01-29T12:49:25.677Z,9.97
2023-01-29T12:51:59.364Z,9.15
2023-01-29T12:54:31.964Z,8.99
2023-01-29T12:57:02.606Z,8.83
2023-01-29T12:59:30.367Z,9.30
2023-01-29T13:01:59.585Z,9.28
2023-01-29T13:04:32.489Z,9.78
2023-01-29T13:07:12.119Z,9.86
2023-01-29T13:09:39.827Z,10.50
2023-01-29T13:12:13.310Z,9.79
2023-01-29T13:14:45.856Z,10.28
2023-01-29T13:17:21.867Z,10.62
2023-01-29T13:19:51.450Z,9.96
2023-01-29T13:22:38.031Z,9.31
2023-01-29T13:25:05.967Z,9.88
2023-01-29T13:27:34.103Z,10.17
2023-01-29T13:30:03.943Z,10.23
2023-01-29T13:32:31.956Z,9.97
2023-01-29T13:35:00.332Z,10.06
2023-01-29T13:37:34.567Z,10.11
2023-01-29T13:40:02.485Z,9.92
2023-01-29T13:42:47.217Z,10.35
2023-01-29T13:45:21.279Z,9.31
2023-01-29T13:47:49.146Z,10.23
2023-01-29T13:50:20.039Z,10.18
2023-01-29T13:52:46.788Z,10.32
2023-01-29T13:55:21.521Z,9.73
2023-01-29T13:57:55.708Z,10.09
2023-01-29T14:00:22.538Z,10.27
2023-01-29T14:03:11.804Z,10.33
2023-01-29T14:05:39.935Z,9.90
2023-01-29T14:08:09.465Z,9.36
2023-01-29T14:10:37.325Z,9.64
2023-01-29T14:13:04.130Z,9.19
2023-01-29T14:15:33.899Z,10.33
2023-01-29T14:18:04.765Z,9.65
2023-01-29T14:20:45.064Z,10.20
2023-01-29T14:23:19.014Z,9.48
2023-01-29T14:25:47.545Z,10.21
2023-01-29T14:28:16.664Z,9.71
2023-01-29T14:30:57.520Z,9.50
2023-01-29T14:33:28.196Z,9.73
2023-01-29T14:36:02.931Z,9.64
2023-01-29T14:38:32.071Z,9.82
2023-01-29T14:41:07.609Z,9.81
2023-01-29T14:43:34.513Z,9.98
2023-01-29T14:46:19.797Z,9.68
2023-01-29T14:48:50.758Z,9.72
2023-01-29T14:51:18.151Z,9.34
2023-01-29T14:53:47.762Z,9.71
2023-01-29T14:56:21.126Z,9.33
2023-01-29T14:58:50.243Z,9.74
2023-01-29T15:01:22.433Z,9.35
2023-01-29T15:04:00.668Z,10.00
2023-01-29T15:06:30.493Z,9.69
2023-01-29T15:09:12.224Z,9.76
2023-01-29T15:11:57.620Z,9.07
2023-01-29T15:14:28.991Z,9.21
2023-01-29T15:17:02.740Z,9.61
2023-01-29T15:19:33.212Z,9.44
2023-01-29T15:22:06.772Z,9.62
2023-01-29T15:24:33.210Z,9.70
2023-01-29T15:27:00.393Z,9.79
2023-01-29T15:29:27.460Z,9.22
2023-01-29T15:31:54.834Z,9.52
2023-01-29T15:34:21.417Z,10.33
2023-01-29T15:36:49.066Z,8.94
2023-01-29T15:39:18.937Z,9.53
2023-01-29T15:41:45.827Z,9.61
2023-01-29T15:44:19.922Z,9.33
2023-01-29T15:46:57.825Z,10.02
2023-01-29T15:49:29.244Z,10.34
2023-01-29T15:51:57.582Z,9.15
2023-01-29T15:54:24.214Z,9.53
2023-01-29T15:56:52.449Z,9.54
2023-01-29T15:59:19.820Z,8.85
2023-01-29T16:01:46.826Z,9.93
2023-01-29T16:04:28.893Z,9.79
2023-01-29T16:06:56.335Z,9.37
2023-01-29T16:09:25.059Z,9.03
2023-01-29T16:11:53.298Z,9.48
2023-01-29T16:14:21.837Z,10.09
2023-01-29T16:16:48.633Z,9.17
2023-01-29T16:19:23.192Z,9.23
2023-01-29T16:21:56.365Z,9.67
2023-01-29T16:24:24.997Z,9.98
2023-01-29T16:26:53.406Z,9.52
2023-01-29T16:29:22.333Z,9.72
2023-01-29T16:31:51.274Z,9.21
2023-01-29T16:34:24.340Z,9.32
2023-01-29T16:36:52.847Z,9.68
2023-01-29T16:39:22.099Z,9.68
2023-01-29T16:42:07.353Z,8.79
2023-01-29T16:44:39.389Z,9.96
2023-01-29T16:47:10.873Z,8.66
2023-01-29T16:49:37.299Z,8.93
2023-01-29T16:52:19.036Z,9.56
2023-01-29T16:54:45.360Z,9.94
2023-01-29T16:57:15.319Z,9.95
2023-01-29T16:59:42.862Z,9.93
2023-01-29T17:02:21.491Z,9.62
2023-01-29T17:04:47.921Z,9.33
2023-01-29T17:07:21.400Z,9.24
2023-01-29T17:09:53.637Z,9.31
2023-01-29T17:12:21.565Z,9.35
2023-01-29T17:14:58.944Z,8.87
2023-01-29T17:17:29.622Z,9.65
2023-01-29T17:19:56.384Z,9.34
2023-01-29T17:22:23.182Z,8.91
2023-01-29T17:24:51.521Z,9.06
2023-01-29T17:27:22.200Z,8.85
2023-01-29T17:29:49.310Z,8.70
2023-01-29T17:32:17.492Z,8.74
2023-01-29T17:34:43.885Z,8.54
2023-01-29T17:37:14.544Z,8.65
2023-01-29T17:39:41.571Z,8.80
2023-01-29T17:42:10.623Z,8.80
2023-01-29T17:44:37.020Z,8.92
2023-01-29T17:47:05.386Z,9.19
2023-01-29T17:49:35.797Z,9.21
2023-01-29T17:52:02.150Z,8.84
2023-01-29T17:54:28.832Z,8.99
2023-01-29T17:56:55.351Z,9.24
2023-01-29T17:59:22.685Z,8.89
2023-01-29T18:01:50.257Z,8.94
2023-01-29T18:04:17.264Z,8.94
2023-01-29T18:06:44.859Z,8.87
2023-01-29T18:09:15.328Z,8.10
2023-01-29T18:11:42.229Z,8.02
2023-01-29T18:14:14.174Z,8.05
2023-01-29T18:16:41.824Z,8.43
2023-01-29T18:19:21.662Z,8.30
2023-01-29T18:21:48.293Z,8.65
2023-01-29T18:24:14.787Z,8.40
2023-01-29T18:26:41.551Z,8.12
2023-01-29T18:29:08.446Z,8.26
2023-01-29T18:31:34.874Z,7.77
2023-01-29T18:34:01.373Z,8.15
2023-01-29T18:36:27.943Z,8.63
2023-01-29T18:38:55.465Z,8.31
2023-01-29T18:41:21.982Z,8.08
2023-01-29T18:43:48.391Z,8.62
2023-01-29T18:46:15.027Z,8.81
2023-01-29T18:48:42.776Z,8.17
2023-01-29T18:51:09.823Z,8.48
2023-01-29T18:53:36.272Z,8.27
2023-01-29T18:56:06.352Z,8.39
2023-01-29T18:58:36.339Z,8.34
2023-01-29T19:01:08.902Z,8.55
2023-01-29T19:03:36.436Z,8.09
2023-01-29T19:06:04.438Z,8.29
2023-01-29T19:08:30.891Z,8.34
2023-01-29T19:10:57.890Z,8.39
2023-01-29T19:13:24.657Z,8.70
2023-01-29T19:15:51.369Z,7.91
2023-01-29T19:18:17.897Z,7.99
2023-01-29T19:20:44.331Z,8.56
2023-01-29T19:23:10.770Z,8.03
2023-01-29T19:25:38.717Z,8.24
2023-01-29T19:28:06.115Z,8.13
2023-01-29T19:30:32.854Z,8.59
2023-01-29T19:32:59.204Z,8.35
2023-01-29T19:35:25.839Z,7.51
2023-01-29T19:37:52.426Z,8.26
2023-01-29T19:40:19.633Z,8.96
2023-01-29T19:42:46.031Z,7.92
2023-01-29T19:45:13.581Z,7.93
2023-01-29T19:47:40.853Z,8.03
2023-01-29T19:50:08.390Z,8.74
2023-01-29T19:52:50.168Z,7.55
2023-01-29T19:55:18.046Z,8.67
2023-01-29T19:57:44.851Z,8.39
2023-01-29T20:00:12.154Z,7.70
2023-01-29T20:02:38.768Z,8.02
2023-01-29T20:05:05.613Z,8.04
2023-01-29T20:07:31.960Z,8.48
2023-01-29T20:09:58.364Z,8.45
2023-01-29T20:12:27.024Z,7.91
2023-01-29T20:14:53.857Z,8.07
2023-01-29T20:17:20.467Z,7.84
2023-01-29T20:19:48.179Z,8.26
2023-01-29T20:22:14.658Z,8.39
2023-01-29T20:24:42.519Z,7.85
2023-01-29T20:27:10.932Z,7.81
2023-01-29T20:29:38.296Z,8.67
2023-01-29T20:32:05.836Z,8.11
2023-01-29T20:34:32.433Z,8.05
2023-01-29T20:36:58.790Z,7.79
2023-01-29T20:39:25.330Z,7.83
2023-01-29T20:41:52.069Z,8.63
2023-01-29T20:44:19.324Z,8.03
2023-01-29T20:46:46.469Z,8.69
2023-01-29T20:49:12.891Z,8.10
2023-01-29T20:51:39.366Z,7.42
2023-01-29T20:54:05.727Z,7.97
2023-01-29T20:56:40.109Z,8.16
2023-01-29T20:59:08.982Z,7.98
2023-01-29T21:01:35.353Z,8.63
2023-01-29T21:04:01.749Z,8.50
2023-01-29T21:06:29.626Z,8.44
2023-01-29T21:08:56.108Z,8.41
2023-01-29T21:11:22.592Z,8.90
2023-01-29T21:13:48.960Z,8.01
2023-01-29T21:16:15.879Z,8.77
2023-01-29T21:18:42.339Z,8.44
2023-01-29T21:21:08.868Z,8.34
2023-01-29T21:23:35.303Z,8.13
2023-01-29T21:26:03.451Z,8.59
2023-01-29T21:28:29.935Z,8.59
2023-01-29T21:31:03.440Z,8.18
2023-01-29T21:33:29.922Z,8.36
2023-01-29T21:36:01.926Z,7.88
2023-01-29T21:38:28.444Z,8.16
2023-01-29T21:41:01.588Z,8.52
2023-01-29T21:43:27.932Z,8.04
2023-01-29T21:45:55.558Z,7.99
2023-01-29T21:48:22.439Z,8.33
2023-01-29T21:50:51.341Z,8.62
2023-01-29T21:53:18.340Z,8.50
2023-01-29T21:55:45.538Z,8.54
2023-01-29T21:58:26.404Z,9.43
2023-01-29T22:00:53.824Z,8.24
2023-01-29T22:03:20.535Z,8.67
2023-01-29T22:05:47.006Z,8.51
2023-01-29T22:08:13.773Z,8.32
2023-01-29T22:10:40.932Z,8.80
2023-01-29T22:13:08.632Z,8.28
2023-01-29T22:15:35.821Z,8.76
2023-01-29T22:18:03.793Z,8.07
2023-01-29T22:20:31.230Z,8.33
2023-01-29T22:23:04.882Z,8.24
2023-01-29T22:25:32.543Z,9.09
2023-01-29T22:28:01.120Z,8.64
2023-01-29T22:30:27.921Z,9.12
2023-01-29T22:32:54.489Z,8.48
2023-01-29T22:35:20.935Z,8.24
2023-01-29T22:37:47.595Z,8.39
2023-01-29T22:40:14.482Z,8.29
2023-01-29T22:42:41.135Z,8.27
2023-01-29T22:45:08.637Z,8.63
2023-01-29T22:47:35.411Z,8.84
2023-01-29T22:50:01.981Z,8.38
2023-01-29T22:52:28.648Z,8.28
2023-01-29T22:54:55.536Z,8.71
2023-01-29T22:57:22.377Z,9.25
2023-01-29T22:59:48.946Z,8.75
2023-01-29T23:02:15.591Z,8.83
2023-01-29T23:04:42.298Z,8.92
2023-01-29T23:07:08.900Z,9.00
2023-01-29T23:09:35.605Z,8.32
2023-01-29T23:12:02.442Z,8.29
2023-01-29T23:14:28.818Z,9.28
2023-01-29T23:16:55.845Z,9.16
2023-01-29T23:19:22.889Z,8.85
2023-01-29T23:21:49.459Z,8.81
2023-01-29T23:24:16.616Z,8.86
2023-01-29T23:27:02.075Z,8.49
2023-01-29T23:29:28.383Z,8.53
2023-01-29T23:31:54.810Z,8.39
2023-01-29T23:34:21.200Z,8.61
2023-01-29T23:36:47.862Z,8.31
2023-01-29T23:39:14.419Z,8.77
2023-01-29T23:41:41.180Z,8.90
2023-01-29T23:44:07.570Z,8.78
2023-01-29T23:46:34.748Z,8.69
2023-01-29T23:49:01.264Z,8.82
2023-01-29T23:51:27.837Z,8.61
2023-01-29T23:53:54.249Z,8.61
2023-01-29T23:56:20.848Z,8.63
2023-01-29T23:58:47.418Z,8.48
